Terminal Aerodrome Forecast
Issued by NWS Milwaukee/Sullivan, WI

Home | Current Version | Previous Version | Text Only | Print | Product List | Glossary On
Versions: 1 2 3 4 5 6 7 8 9 10 11 12 13 14 15 16 17 18 19 20 21 22 23 24 25 26 27 28 29 30 31 32 33 34 35 36 37 38 39 40 41 42 43 44 45 46 47 48 49 50
000
FTUS43 KMKX 161445 AAE
TAFMKE
TAF AMD
KMKE 161445Z 1615/1718 13004KT 3SM -FZRA BR OVC040
     FM161800 12005KT 3SM -RA BR OVC015
     FM162200 09007KT 1SM -RA BR OVC003
     FM170900 07004KT 1/2SM RA FG OVC003
     FM171200 04005KT 3/4SM BR OVC003
     FM171400 01005KT 5SM BR OVC003=

USA.gov is the U.S. government's official web portal to all federal, state and local government web resources and services.